Time;durP1;ratioP1;P1;durP2;ratioP2;P2;SDS_P1;SDS_P2;PMS_P1;PMS_P2;Temp;Humidity;BMP_temperature;BMP_pressure;BME280_temperature;BME280_humidity;BME280_pressure;Samples;Min_cycle;Max_cycle;Signal;HPM_P1;HPM_P2
2021/03/22 00:00:52;;;;;;;38.30;21.00;;;;;;;1.01;62.35;98614.70;128302;1110;23403;-62
2021/03/22 00:03:20;;;;;;;39.60;21.37;;;;;;;0.99;62.32;98617.59;128170;1110;22860;-63
2021/03/22 00:05:48;;;;;;;38.63;20.70;;;;;;;1.00;63.16;98610.37;128361;1110;23519;-62
2021/03/22 00:08:17;;;;;;;33.30;18.43;;;;;;;0.98;62.25;98599.86;128189;1111;23375;-62
2021/03/22 00:10:45;;;;;;;33.30;19.07;;;;;;;0.98;62.10;98590.98;128372;1111;22908;-63
2021/03/22 00:13:15;;;;;;;35.03;19.43;;;;;;;0.98;62.95;98591.81;128207;1112;22915;-63
2021/03/22 00:16:05;;;;;;;28.77;16.63;;;;;;;0.97;62.73;98583.98;128308;1110;22908;-63
2021/03/22 00:18:34;;;;;;;28.37;16.53;;;;;;;0.96;61.99;98591.20;128160;1111;22814;-62
2021/03/22 00:21:02;;;;;;;33.37;19.77;;;;;;;0.92;63.30;98571.22;128343;1110;23631;-63
2021/03/22 00:23:30;;;;;;;35.80;18.63;;;;;;;0.96;63.35;98572.43;128142;1111;22909;-62
2021/03/22 00:25:59;;;;;;;33.10;18.77;;;;;;;0.97;62.14;98575.94;126801;1110;23053;-63
2021/03/22 00:28:27;;;;;;;40.33;21.43;;;;;;;0.95;63.12;98569.97;128148;1109;22869;-62
2021/03/22 00:30:56;;;;;;;37.67;20.20;;;;;;;0.93;62.35;98572.86;128308;1109;22923;-62
2021/03/22 00:33:24;;;;;;;31.97;18.77;;;;;;;0.92;62.43;98573.91;128205;1110;22805;-62
2021/03/22 00:35:55;;;;;;;33.43;18.30;;;;;;;0.88;62.21;98566.50;128253;1109;22835;-62
2021/03/22 00:38:22;;;;;;;26.80;16.43;;;;;;;0.87;63.48;98575.59;128207;1110;22815;-62
2021/03/22 00:40:50;;;;;;;27.10;16.93;;;;;;;0.85;62.22;98566.97;126220;1111;23054;-61
2021/03/22 00:43:18;;;;;;;31.20;17.50;;;;;;;0.84;62.86;98568.00;124078;1110;23501;-60
2021/03/22 00:46:01;;;;;;;31.00;17.40;;;;;;;0.80;62.75;98562.25;124097;1111;25663;-61
2021/03/22 00:48:30;;;;;;;31.57;17.60;;;;;;;0.78;62.49;98561.64;128175;1110;22958;-61
2021/03/22 00:50:58;;;;;;;25.10;15.13;;;;;;;0.74;63.49;98562.29;128351;1110;22961;-62
2021/03/22 00:53:26;;;;;;;26.80;16.17;;;;;;;0.72;63.80;98559.03;128323;1110;22837;-62
2021/03/22 00:55:54;;;;;;;30.73;17.93;;;;;;;0.70;63.46;98556.56;128198;1110;23841;-61
2021/03/22 00:58:23;;;;;;;27.47;16.53;;;;;;;0.66;63.47;98563.39;128319;1110;22816;-61
2021/03/22 01:00:53;;;;;;;27.23;16.27;;;;;;;0.64;63.50;98565.47;128188;1111;22973;-61
2021/03/22 01:03:25;;;;;;;32.47;18.80;;;;;;;0.59;62.96;98560.75;128316;1111;23825;-61
2021/03/22 01:05:53;;;;;;;37.53;20.23;;;;;;;0.55;63.68;98562.25;128194;1112;22869;-61
2021/03/22 01:08:22;;;;;;;37.60;20.97;;;;;;;0.51;63.83;98560.20;128293;1111;22837;-61
2021/03/22 01:10:54;;;;;;;38.70;19.90;;;;;;;0.47;63.90;98557.12;128196;1110;22831;-62
2021/03/22 01:13:36;;;;;;;37.93;20.27;;;;;;;0.46;63.96;98560.02;128347;1110;22835;-61
2021/03/22 01:16:19;;;;;;;28.30;16.20;;;;;;;0.41;63.40;98563.38;128143;1110;22844;-61
2021/03/22 01:18:49;;;;;;;29.10;15.67;;;;;;;0.40;64.39;98563.59;128330;1110;22891;-62
2021/03/22 01:21:31;;;;;;;27.80;16.03;;;;;;;0.40;64.54;98566.27;128195;1112;23055;-62
2021/03/22 01:23:59;;;;;;;29.67;16.03;;;;;;;0.41;63.69;98567.91;128260;1110;24665;-62
2021/03/22 01:26:29;;;;;;;30.70;17.00;;;;;;;0.42;63.73;98564.20;128186;1110;22818;-61
2021/03/22 01:28:56;;;;;;;32.60;17.80;;;;;;;0.44;63.99;98564.77;128322;1110;22825;-61
2021/03/22 01:31:25;;;;;;;32.20;18.10;;;;;;;0.45;64.43;98559.20;128173;1111;23605;-62
2021/03/22 01:33:54;;;;;;;29.40;15.93;;;;;;;0.48;65.01;98563.31;128328;1112;22878;-62
2021/03/22 01:36:26;;;;;;;31.03;17.53;;;;;;;0.51;64.45;98562.89;128206;1111;22877;-62
2021/03/22 01:38:56;;;;;;;28.53;15.67;;;;;;;0.52;64.26;98548.45;128303;1111;22849;-62
2021/03/22 01:41:47;;;;;;;28.20;16.13;;;;;;;0.53;65.03;98558.95;128189;1111;22998;-62
2021/03/22 01:44:28;;;;;;;25.87;14.73;;;;;;;0.56;65.05;98553.17;128287;1112;22899;-62
2021/03/22 01:47:07;;;;;;;27.60;15.47;;;;;;;0.58;65.02;98550.25;128105;1112;22821;-62
2021/03/22 01:49:47;;;;;;;26.83;14.87;;;;;;;0.60;64.07;98551.67;128301;1110;22900;-62
2021/03/22 01:52:15;;;;;;;28.80;14.60;;;;;;;0.61;65.18;98549.81;128213;1111;22874;-62
2021/03/22 01:54:42;;;;;;;25.20;14.03;;;;;;;0.61;64.02;98545.28;128322;1110;22891;-62
2021/03/22 01:57:29;;;;;;;27.07;14.73;;;;;;;0.64;65.10;98560.11;128222;1110;22866;-62
2021/03/22 02:00:28;;;;;;;24.90;14.40;;;;;;;0.65;65.07;98540.30;128291;1109;22881;-62
2021/03/22 02:03:06;;;;;;;24.25;14.50;;;;;;;0.66;65.52;98550.81;128164;1110;22880;-62
2021/03/22 02:05:35;;;;;;;23.70;14.90;;;;;;;0.68;65.50;98555.96;128321;1110;22859;-62
2021/03/22 02:08:05;;;;;;;26.13;15.17;;;;;;;0.68;65.02;98546.06;128229;1112;22808;-62
2021/03/22 02:10:33;;;;;;;28.00;15.80;;;;;;;0.69;64.92;98550.39;128316;1110;23401;-62
2021/03/22 02:13:02;;;;;;;31.23;15.53;;;;;;;0.72;65.12;98549.13;128177;1111;23072;-62
2021/03/22 02:15:30;;;;;;;27.47;16.23;;;;;;;0.73;64.10;98547.24;128281;1110;22895;-62
2021/03/22 02:18:08;;;;;;;33.10;17.07;;;;;;;0.74;65.22;98552.39;128075;1112;22820;-62
2021/03/22 02:21:00;;;;;;;28.00;15.83;;;;;;;0.75;65.26;98543.31;128312;1110;22977;-62
2021/03/22 02:24:15;;;;;;;31.43;15.97;;;;;;;0.76;64.16;98544.95;128176;1111;22863;-62
2021/03/22 02:27:15;;;;;;;31.30;17.23;;;;;;;0.76;64.61;98544.13;125480;1112;23251;-62
2021/03/22 02:29:54;;;;;;;27.63;15.80;;;;;;;0.75;65.27;98539.80;128319;1111;22797;-62
2021/03/22 02:32:49;;;;;;;29.77;15.57;;;;;;;0.74;65.18;98544.34;128166;1110;22856;-63
2021/03/22 02:35:20;;;;;;;27.10;15.60;;;;;;;0.75;65.66;98542.48;128350;1110;22964;-63
2021/03/22 02:37:51;;;;;;;25.87;15.57;;;;;;;0.74;65.39;98536.30;128178;1110;22826;-63
2021/03/22 02:40:20;;;;;;;26.97;15.87;;;;;;;0.74;64.73;98536.30;128292;1110;23601;-60
2021/03/22 02:42:48;;;;;;;24.60;14.80;;;;;;;0.76;64.15;98534.23;128196;1111;22987;-60
2021/03/22 02:45:21;;;;;;;28.70;15.27;;;;;;;0.76;65.19;98528.87;128308;1110;22846;-60
2021/03/22 02:47:48;;;;;;;23.47;15.30;;;;;;;0.78;65.49;98532.16;128267;1110;23024;-60
2021/03/22 02:50:19;;;;;;;28.30;15.80;;;;;;;0.79;65.82;98532.98;128210;1110;22825;-60
2021/03/22 02:53:09;;;;;;;24.93;15.27;;;;;;;0.81;65.43;98531.72;128330;1110;22888;-60
2021/03/22 02:55:51;;;;;;;27.70;14.10;;;;;;;0.81;64.69;98526.36;127544;1111;23094;-60
2021/03/22 02:58:20;;;;;;;23.77;13.57;;;;;;;0.83;65.55;98526.14;128217;1110;22959;-60
2021/03/22 03:00:54;;;;;;;26.57;13.50;;;;;;;0.83;65.77;98526.97;128314;1111;23007;-60
2021/03/22 03:03:22;;;;;;;23.40;14.10;;;;;;;0.83;65.27;98518.92;128304;1110;23006;-60
2021/03/22 03:05:50;;;;;;;22.43;14.13;;;;;;;0.84;64.84;98525.92;128171;1111;23714;-60
2021/03/22 03:08:23;;;;;;;24.70;14.65;;;;;;;0.83;64.75;98512.73;128381;1110;22888;-60
2021/03/22 03:10:50;;;;;;;22.43;14.87;;;;;;;0.83;64.56;98513.56;128164;1110;22865;-61
2021/03/22 03:13:18;;;;;;;23.03;13.77;;;;;;;0.83;64.39;98507.37;128304;1110;23426;-61
2021/03/22 03:15:45;;;;;;;23.27;14.07;;;;;;;0.83;65.67;98508.20;128158;1112;22871;-60
2021/03/22 03:18:13;;;;;;;22.57;14.23;;;;;;;0.84;65.08;98503.66;128254;1111;23035;-60
2021/03/22 03:20:40;;;;;;;21.60;13.97;;;;;;;0.84;65.73;98514.37;128184;1111;23665;-60
2021/03/22 03:23:12;;;;;;;27.50;15.40;;;;;;;0.83;66.06;98516.23;128334;1111;22971;-60
2021/03/22 03:25:40;;;;;;;24.53;15.33;;;;;;;0.84;65.93;98509.84;128193;1110;22882;-60
2021/03/22 03:28:07;;;;;;;25.57;14.87;;;;;;;0.83;65.08;98510.88;128370;1110;23699;-60
2021/03/22 03:30:36;;;;;;;35.70;17.20;;;;;;;0.85;65.80;98516.02;128200;1109;22862;-60
2021/03/22 03:33:09;;;;;;;31.03;17.27;;;;;;;0.84;64.59;98517.88;128304;1109;22870;-60
2021/03/22 03:35:37;;;;;;;34.57;18.13;;;;;;;0.84;65.76;98512.52;128168;1111;22835;-60
2021/03/22 03:38:05;;;;;;;34.23;18.93;;;;;;;0.84;65.64;98506.34;128295;1110;22835;-60
2021/03/22 03:40:50;;;;;;;39.53;21.00;;;;;;;0.84;64.88;98509.84;128141;1110;23117;-60
2021/03/22 03:43:18;;;;;;;37.97;21.37;;;;;;;0.85;65.01;98505.30;128313;1111;22936;-60
2021/03/22 03:45:46;;;;;;;40.80;21.30;;;;;;;0.85;66.04;98500.76;128171;1109;22898;-60
2021/03/22 03:48:22;;;;;;;36.20;20.43;;;;;;;0.84;64.80;98496.44;128312;1109;23003;-60
2021/03/22 03:50:55;;;;;;;35.43;19.87;;;;;;;0.84;65.53;98492.93;128198;1110;23026;-60
2021/03/22 03:53:22;;;;;;;33.47;19.03;;;;;;;0.84;65.75;98498.30;128372;1110;22849;-60
2021/03/22 03:55:50;;;;;;;33.83;19.93;;;;;;;0.80;66.15;98497.91;128179;1110;22846;-60
2021/03/22 03:58:18;;;;;;;30.67;17.67;;;;;;;0.77;66.13;98492.98;128325;1110;22813;-60
2021/03/22 04:00:46;;;;;;;30.20;18.60;;;;;;;0.77;66.41;98489.48;128202;1112;22821;-60
2021/03/22 04:03:24;;;;;;;28.43;16.10;;;;;;;0.76;66.46;98485.97;128251;1110;22846;-63
2021/03/22 04:05:59;;;;;;;23.40;14.15;;;;;;;0.77;66.22;98481.44;128346;1110;22779;-63
2021/03/22 04:08:28;;;;;;;27.47;16.20;;;;;;;0.78;66.79;98480.39;128262;1111;22860;-61
2021/03/22 04:10:56;;;;;;;24.63;15.40;;;;;;;0.76;65.93;98483.30;128318;1110;22825;-61
2021/03/22 04:13:23;;;;;;;26.50;15.53;;;;;;;0.77;66.37;98476.89;128280;1111;23951;-61
2021/03/22 04:15:51;;;;;;;27.33;14.87;;;;;;;0.78;65.50;98478.53;128305;1111;22830;-61
2021/03/22 04:18:34;;;;;;;30.17;15.97;;;;;;;0.78;65.64;98473.17;128211;1110;22830;-61
2021/03/22 04:21:03;;;;;;;27.93;16.07;;;;;;;0.79;66.51;98485.54;128332;1111;22828;-61
2021/03/22 04:23:31;;;;;;;29.40;15.40;;;;;;;0.79;65.23;98479.36;128156;1111;22927;-61
2021/03/22 04:25:59;;;;;;;25.00;15.33;;;;;;;0.80;66.47;98481.82;128302;1111;22811;-61
2021/03/22 04:28:27;;;;;;;30.77;18.07;;;;;;;0.82;66.25;98468.20;128208;1111;22884;-61
2021/03/22 04:30:54;;;;;;;26.97;16.57;;;;;;;0.82;66.13;98469.02;128368;1108;22858;-61
2021/03/22 04:33:22;;;;;;;30.70;15.70;;;;;;;0.83;66.33;98465.30;128250;1109;23603;-61
2021/03/22 04:35:50;;;;;;;25.23;15.53;;;;;;;0.86;65.57;98469.41;128358;1107;22891;-61
2021/03/22 04:38:18;;;;;;;34.70;17.93;;;;;;;0.85;65.83;98470.44;128225;1107;23820;-61
2021/03/22 04:40:46;;;;;;;34.63;18.37;;;;;;;0.87;65.66;98473.70;128288;1108;23464;-61
2021/03/22 04:43:13;;;;;;;28.53;17.60;;;;;;;0.88;65.57;98480.70;128241;1107;22862;-61
2021/03/22 04:45:41;;;;;;;30.77;18.50;;;;;;;0.89;66.69;98479.66;128344;1107;22858;-61
2021/03/22 04:48:11;;;;;;;30.87;16.53;;;;;;;0.91;65.35;98472.22;128238;1107;22939;-61
2021/03/22 04:50:38;;;;;;;35.73;17.30;;;;;;;0.92;65.71;98482.73;128347;1108;22885;-61
2021/03/22 04:53:06;;;;;;;30.10;16.70;;;;;;;0.95;65.63;98479.61;128209;1107;23787;-61
2021/03/22 04:55:33;;;;;;;31.83;16.70;;;;;;;0.97;65.72;98474.84;128345;1108;22824;-61
2021/03/22 05:00:09;;;;;;;29.35;16.20;;;;;;;1.00;65.72;98479.78;124209;1109;23052;-61
2021/03/22 05:02:36;;;;;;;35.03;18.13;;;;;;;1.02;65.42;98472.30;128319;1110;22871;-62
2021/03/22 05:05:06;;;;;;;43.07;22.73;;;;;;;1.05;65.76;98476.41;128242;1112;23081;-62
2021/03/22 05:07:37;;;;;;;46.13;22.80;;;;;;;1.06;65.93;98489.59;128283;1110;22872;-62
2021/03/22 05:10:06;;;;;;;52.60;25.67;;;;;;;1.09;66.46;98482.97;128170;1111;23578;-62
2021/03/22 05:12:34;;;;;;;70.87;30.50;;;;;;;1.10;65.99;98489.16;128318;1111;22843;-62
2021/03/22 05:15:03;;;;;;;81.50;32.03;;;;;;;1.14;65.50;98488.50;128178;1111;22951;-62
2021/03/22 05:17:30;;;;;;;117.27;40.60;;;;;;;1.15;66.68;98489.33;128336;1110;22907;-62
2021/03/22 05:19:58;;;;;;;129.43;43.13;;;;;;;1.16;65.69;98488.25;128233;1111;22889;-62
2021/03/22 05:22:25;;;;;;;106.27;37.53;;;;;;;1.17;66.45;98490.72;128310;1111;22871;-62
2021/03/22 05:24:52;;;;;;;68.70;28.23;;;;;;;1.22;65.89;98498.11;128159;1111;23480;-62
2021/03/22 05:27:20;;;;;;;60.87;26.23;;;;;;;1.22;65.78;98496.24;128336;1111;23969;-62
2021/03/22 05:29:47;;;;;;;53.77;21.60;;;;;;;1.26;66.07;98492.08;128165;1110;22818;-62
2021/03/22 05:32:31;;;;;;;37.37;19.23;;;;;;;1.31;65.78;98496.75;128272;1110;23030;-62
2021/03/22 05:34:59;;;;;;;33.00;18.67;;;;;;;1.33;65.36;98503.55;128218;1110;22841;-62
2021/03/22 05:37:26;;;;;;;30.73;18.70;;;;;;;1.35;65.89;98497.95;128315;1110;23633;-62
2021/03/22 05:39:54;;;;;;;30.80;18.95;;;;;;;1.37;66.09;98506.61;126811;1110;23062;-61
2021/03/22 05:42:43;;;;;;;26.53;17.00;;;;;;;1.41;65.65;98499.76;128308;1112;23022;-62
2021/03/22 05:45:23;;;;;;;31.70;16.00;;;;;;;1.40;66.05;98496.25;127487;1111;23505;-62
2021/03/22 05:48:29;;;;;;;27.37;16.00;;;;;;;1.44;65.19;98498.49;128279;1111;22932;-61
2021/03/22 05:51:22;;;;;;;27.40;15.63;;;;;;;1.48;65.42;98494.30;128128;1112;23718;-61
2021/03/22 05:54:06;;;;;;;31.50;17.20;;;;;;;1.51;65.96;98497.36;128268;1111;22859;-62
2021/03/22 05:56:34;;;;;;;28.80;15.65;;;;;;;1.56;65.32;98502.88;128199;1111;22974;-62
2021/03/22 05:59:26;;;;;;;32.33;17.80;;;;;;;1.61;64.68;98494.13;128297;1111;23570;-61
2021/03/22 06:01:55;;;;;;;29.57;15.73;;;;;;;1.66;64.66;98491.59;128210;1111;22883;-62
2021/03/22 06:04:25;;;;;;;34.83;18.50;;;;;;;1.70;65.49;98488.25;128280;1111;22951;-61
2021/03/22 06:06:53;;;;;;;39.50;20.15;;;;;;;1.76;65.00;98489.19;128156;1111;23993;-61
2021/03/22 06:09:43;;;;;;;31.45;17.20;;;;;;;1.82;65.13;98492.84;128344;1110;22840;-62
2021/03/22 06:12:20;;;;;;;33.43;16.37;;;;;;;1.87;65.14;98487.62;128176;1110;22896;-62
2021/03/22 06:14:51;;;;;;;25.20;14.23;;;;;;;1.93;63.91;98489.38;128300;1111;22855;-62
2021/03/22 06:17:29;;;;;;;38.70;19.80;;;;;;;1.98;64.44;98489.53;128169;1112;22826;-61
2021/03/22 06:20:20;;;;;;;62.05;24.70;;;;;;;2.02;63.30;98488.82;128309;1111;22871;-61
2021/03/22 06:22:47;;;;;;;59.17;23.87;;;;;;;2.06;64.65;98492.70;128140;1112;22841;-61
2021/03/22 06:25:28;;;;;;;34.00;16.85;;;;;;;2.11;63.67;98494.71;128350;1111;23011;-61
2021/03/22 06:28:07;;;;;;;32.20;16.35;;;;;;;2.16;64.23;98497.54;128190;1110;22828;-62
2021/03/22 06:30:34;;;;;;;34.75;16.60;;;;;;;2.23;63.55;98489.36;128283;1111;22935;-61
2021/03/22 06:33:02;;;;;;;33.17;16.80;;;;;;;2.26;64.15;98492.42;128155;1111;22971;-62
2021/03/22 06:35:35;;;;;;;28.77;15.17;;;;;;;2.30;63.38;98496.30;128297;1110;22934;-61
2021/03/22 06:38:02;;;;;;;31.20;16.23;;;;;;;2.36;63.41;98491.85;128126;1112;23648;-61
2021/03/22 06:40:34;;;;;;;41.05;17.60;;;;;;;2.41;64.05;98502.73;128237;1111;22867;-62
2021/03/22 06:43:04;;;;;;;65.93;22.73;;;;;;;2.42;63.71;98501.69;128212;1112;22841;-62
2021/03/22 06:45:42;;;;;;;43.55;18.55;;;;;;;2.42;63.55;98491.77;127605;1110;23111;-62
2021/03/22 06:48:27;;;;;;;121.95;33.65;;;;;;;2.47;63.55;98499.11;128161;1111;22833;-62
2021/03/22 06:51:04;;;;;;;46.23;22.07;;;;;;;2.49;64.15;98505.91;128337;1111;23473;-62
2021/03/22 06:53:45;;;;;;;49.05;20.62;;;;;;;2.51;64.03;98500.30;128189;1111;23463;-62
2021/03/22 06:56:12;;;;;;;78.30;23.83;;;;;;;2.53;63.54;98513.52;128293;1111;22954;-62
2021/03/22 06:58:40;;;;;;;39.00;18.03;;;;;;;2.52;65.03;98510.00;128212;1111;22850;-62
2021/03/22 07:01:30;;;;;;;33.60;17.37;;;;;;;2.54;65.43;98507.91;128324;1111;22906;-62
2021/03/22 07:04:23;;;;;;;39.97;19.80;;;;;;;2.58;65.65;98510.96;128136;1111;22916;-62
2021/03/22 07:07:16;;;;;;;35.63;17.37;;;;;;;2.58;65.86;98519.03;128314;1111;23664;-62
2021/03/22 07:09:52;;;;;;;31.93;15.90;;;;;;;2.60;66.46;98516.93;128219;1111;22873;-62
2021/03/22 07:12:32;;;;;;;27.40;14.33;;;;;;;2.60;66.87;98517.72;128276;1111;22873;-62
2021/03/22 07:15:24;;;;;;;32.23;16.43;;;;;;;2.62;66.54;98522.87;128163;1110;22979;-63
2021/03/22 07:18:11;;;;;;;29.85;16.95;;;;;;;2.62;66.62;98512.94;128263;1112;22907;-62
2021/03/22 07:21:03;;;;;;;32.85;16.25;;;;;;;2.63;67.46;98516.45;128249;1112;22842;-62
2021/03/22 07:23:44;;;;;;;36.87;18.67;;;;;;;2.59;67.80;98509.91;128256;1111;23700;-64
2021/03/22 07:26:17;;;;;;;35.23;17.93;;;;;;;2.64;67.75;98518.91;128297;1110;22930;-62
2021/03/22 07:28:51;;;;;;;30.70;17.10;;;;;;;2.65;68.09;98523.23;128245;1111;23611;-62
2021/03/22 07:31:54;;;;;;;22.83;13.67;;;;;;;2.65;68.49;98520.55;128285;1112;23556;-62
2021/03/22 07:34:31;;;;;;;27.43;16.73;;;;;;;2.65;68.21;98519.73;128185;1112;23044;-62
2021/03/22 07:37:26;;;;;;;33.33;18.17;;;;;;;2.64;68.33;98518.91;128339;1111;22982;-62
2021/03/22 07:39:56;;;;;;;28.90;16.90;;;;;;;2.64;68.84;98523.46;128184;1112;24054;-62
2021/03/22 07:42:25;;;;;;;31.05;16.35;;;;;;;2.64;69.25;98520.77;128334;1111;22872;-63
2021/03/22 07:44:56;;;;;;;24.65;15.30;;;;;;;2.65;69.39;98520.55;128146;1112;23468;-63
2021/03/22 07:48:03;;;;;;;26.50;15.80;;;;;;;2.66;70.10;98518.67;128301;1111;23055;-63
2021/03/22 07:50:35;;;;;;;23.53;14.23;;;;;;;2.69;70.12;98524.42;128170;1111;22929;-62
2021/03/22 07:53:31;;;;;;;27.53;16.53;;;;;;;2.70;70.10;98523.37;128325;1110;22900;-62
2021/03/22 07:56:07;;;;;;;23.53;15.33;;;;;;;2.69;70.29;98510.97;126781;1111;23124;-62
2021/03/22 07:59:01;;;;;;;23.10;14.20;;;;;;;2.69;71.22;98520.91;124093;1112;24599;-63
2021/03/22 08:01:41;;;;;;;21.45;14.45;;;;;;;2.65;71.24;98520.55;123775;1111;23227;-62
2021/03/22 08:04:41;;;;;;;21.65;14.60;;;;;;;2.63;71.20;98519.95;128269;1111;23477;-61
2021/03/22 08:07:32;;;;;;;22.35;14.35;;;;;;;2.62;71.15;98531.76;128157;1111;22951;-62
2021/03/22 08:10:30;;;;;;;32.87;20.80;;;;;;;2.61;71.76;98531.98;128337;1111;22845;-62
2021/03/22 08:12:58;;;;;;;28.47;17.50;;;;;;;2.63;71.40;98524.52;128351;1111;22900;-62
2021/03/22 08:15:31;;;;;;;30.87;17.60;;;;;;;2.64;71.61;98523.46;128340;1111;23062;-62
2021/03/22 08:18:33;;;;;;;24.57;15.83;;;;;;;2.64;72.62;98524.28;128222;1111;23515;-62
2021/03/22 08:21:06;;;;;;;23.90;15.83;;;;;;;2.62;72.14;98529.07;128228;1111;22881;-62
2021/03/22 08:23:42;;;;;;;24.97;17.17;;;;;;;2.61;72.03;98529.30;128324;1111;23374;-62
2021/03/22 08:26:17;;;;;;;27.85;18.42;;;;;;;2.61;72.21;98524.73;128234;1111;23623;-62
2021/03/22 08:29:02;;;;;;;26.73;16.67;;;;;;;2.61;72.83;98535.50;128234;1111;23031;-62
2021/03/22 08:31:50;;;;;;;27.95;17.40;;;;;;;2.60;72.66;98533.85;128177;1110;24217;-62
2021/03/22 08:34:38;;;;;;;23.27;16.07;;;;;;;2.59;72.34;98539.49;128304;1111;23194;-62
2021/03/22 08:37:27;;;;;;;24.27;15.27;;;;;;;2.57;72.92;98531.66;128157;1111;22913;-62
2021/03/22 08:40:14;;;;;;;22.90;14.70;;;;;;;2.56;72.40;98535.39;128326;1111;22896;-62
2021/03/22 08:42:52;;;;;;;20.12;14.65;;;;;;;2.54;72.03;98531.28;128180;1111;22956;-62
2021/03/22 08:45:39;;;;;;;23.40;14.45;;;;;;;2.52;71.72;98531.52;128267;1111;22910;-62
2021/03/22 08:48:30;;;;;;;25.23;15.17;;;;;;;2.49;72.44;98535.48;128165;1111;22904;-62
2021/03/22 08:51:06;;;;;;;24.43;14.60;;;;;;;2.48;72.06;98527.64;128254;1112;22874;-62
2021/03/22 08:53:39;;;;;;;22.83;15.10;;;;;;;2.47;71.90;98537.57;128153;1111;22889;-62
2021/03/22 08:56:19;;;;;;;23.30;15.15;;;;;;;2.46;72.44;98530.55;126732;1112;23199;-61
2021/03/22 08:58:47;;;;;;;24.25;16.15;;;;;;;2.51;72.53;98539.80;124021;1112;23119;-61
2021/03/22 09:01:35;;;;;;;27.10;16.40;;;;;;;2.49;72.63;98540.03;124005;1112;23186;-61
2021/03/22 09:04:31;;;;;;;26.53;16.03;;;;;;;2.49;72.58;98543.54;123945;1112;27495;-61
2021/03/22 09:07:11;;;;;;;23.90;14.97;;;;;;;2.48;73.13;98533.83;128283;1112;23642;-62
2021/03/22 09:09:46;;;;;;;22.80;14.60;;;;;;;2.51;72.61;98537.94;128153;1111;22833;-62
2021/03/22 09:12:28;;;;;;;23.25;14.10;;;;;;;2.52;72.54;98542.27;128309;1111;22819;-61
2021/03/22 09:14:57;;;;;;;24.80;16.53;;;;;;;2.54;72.58;98545.55;128184;1111;22997;-61
2021/03/22 09:17:40;;;;;;;24.03;15.17;;;;;;;2.55;72.84;98539.13;128257;1112;23027;-61
2021/03/22 09:20:21;;;;;;;24.05;15.50;;;;;;;2.54;72.17;98537.48;128088;1111;23099;-62
2021/03/22 09:22:51;;;;;;;24.20;15.70;;;;;;;2.54;72.58;98542.86;128285;1112;23529;-61
2021/03/22 09:25:56;;;;;;;25.35;16.55;;;;;;;2.55;72.30;98536.44;127858;1111;22801;-60
2021/03/22 09:28:30;;;;;;;26.20;15.75;;;;;;;2.58;72.64;98529.78;127965;1113;22939;-61
2021/03/22 09:31:11;;;;;;;23.40;15.60;;;;;;;2.61;73.01;98532.80;127851;1114;23700;-61
2021/03/22 09:33:53;;;;;;;25.27;15.53;;;;;;;2.62;72.48;98537.14;127943;1114;22847;-61
2021/03/22 09:36:30;;;;;;;26.53;16.00;;;;;;;2.63;72.64;98532.58;127843;1114;22938;-61
2021/03/22 09:38:58;;;;;;;23.87;16.97;;;;;;;2.65;71.88;98531.30;127914;1114;22892;-61
2021/03/22 09:42:01;;;;;;;25.00;17.20;;;;;;;2.70;71.98;98533.31;127789;1114;22880;-61
2021/03/22 09:44:56;;;;;;;30.70;19.93;;;;;;;2.78;72.80;98539.16;127921;1114;22864;-61
2021/03/22 09:47:31;;;;;;;28.00;17.83;;;;;;;2.84;71.97;98538.23;127944;1115;23020;-62
2021/03/22 09:50:02;;;;;;;27.65;17.10;;;;;;;2.91;71.91;98539.98;127826;1114;25204;-62
2021/03/22 09:53:10;;;;;;;25.20;16.90;;;;;;;2.96;72.34;98540.94;127962;1114;22846;-61
2021/03/22 09:55:40;;;;;;;29.73;18.77;;;;;;;3.01;71.95;98538.37;127809;1115;23699;-61
2021/03/22 09:58:27;;;;;;;27.95;19.40;;;;;;;3.06;71.83;98546.55;127927;1114;23033;-61
2021/03/22 10:01:00;;;;;;;22.60;15.10;;;;;;;3.09;71.37;98539.88;127820;1115;23872;-61
2021/03/22 10:03:27;;;;;;;24.83;15.70;;;;;;;3.08;71.46;98543.63;128251;1111;23117;-61
2021/03/22 10:05:57;;;;;;;26.30;17.33;;;;;;;3.09;71.08;98551.47;128149;1111;24002;-61
2021/03/22 10:08:26;;;;;;;29.95;17.90;;;;;;;3.12;71.64;98548.31;128251;1112;22842;-62
2021/03/22 10:10:55;;;;;;;29.30;18.60;;;;;;;3.17;71.48;98550.31;128129;1112;22904;-61
2021/03/22 10:13:29;;;;;;;25.50;18.07;;;;;;;3.18;71.39;98555.44;128254;1111;22944;-61
2021/03/22 10:16:07;;;;;;;28.75;19.10;;;;;;;3.17;70.70;98559.18;128188;1112;22866;-61
2021/03/22 10:18:55;;;;;;;28.65;17.30;;;;;;;3.13;70.70;98562.59;128289;1112;22828;-61
2021/03/22 10:21:22;;;;;;;31.07;18.37;;;;;;;3.06;71.09;98562.70;128125;1112;22897;-61
2021/03/22 10:23:50;;;;;;;25.50;17.50;;;;;;;2.96;70.77;98551.70;128338;1112;23843;-61
2021/03/22 10:26:38;;;;;;;25.70;17.15;;;;;;;2.91;71.11;98559.63;128276;1112;22892;-61
2021/03/22 10:29:09;;;;;;;25.50;16.17;;;;;;;2.88;71.20;98559.30;128249;1112;22842;-61
2021/03/22 10:31:37;;;;;;;26.37;17.53;;;;;;;2.84;71.40;98561.63;128180;1110;22835;-61
2021/03/22 10:34:05;;;;;;;23.15;15.75;;;;;;;2.80;71.66;98558.58;128259;1111;22862;-61
2021/03/22 10:36:35;;;;;;;26.17;15.83;;;;;;;2.74;71.07;98561.39;125775;1111;26621;-61
2021/03/22 10:39:12;;;;;;;22.27;15.77;;;;;;;2.69;71.82;98563.94;128145;1111;23055;-63
2021/03/22 10:41:41;;;;;;;23.17;15.57;;;;;;;2.62;71.93;98558.64;128239;1112;22867;-61
2021/03/22 10:44:14;;;;;;;22.60;15.45;;;;;;;2.59;71.26;98555.63;128174;1111;22920;-61
2021/03/22 10:46:42;;;;;;;23.17;15.80;;;;;;;2.60;71.42;98562.64;128309;1111;22989;-60
2021/03/22 10:49:13;;;;;;;25.17;17.27;;;;;;;2.60;72.35;98557.27;128152;1111;22911;-60
2021/03/22 10:51:47;;;;;;;27.80;17.90;;;;;;;2.58;72.00;98559.36;128291;1111;23019;-60
2021/03/22 10:54:16;;;;;;;25.00;17.17;;;;;;;2.53;71.81;98557.35;128184;1111;22900;-61
2021/03/22 10:56:53;;;;;;;29.97;18.53;;;;;;;2.52;72.49;98553.02;128245;1111;22918;-61
2021/03/22 10:59:34;;;;;;;27.10;17.75;;;;;;;2.51;71.78;98553.25;128090;1112;22920;-61
2021/03/22 11:02:23;;;;;;;23.65;16.50;;;;;;;2.45;72.12;98557.69;128313;1111;22877;-61
2021/03/22 11:04:52;;;;;;;27.25;16.55;;;;;;;2.43;72.70;98557.09;128213;1112;22858;-61
2021/03/22 11:07:26;;;;;;;30.83;23.07;;;;;;;2.38;72.49;98549.71;124587;1112;23073;-61
2021/03/22 11:10:01;;;;;;;35.70;29.52;;;;;;;2.30;73.15;98552.73;128254;1112;23818;-62
2021/03/22 11:12:29;;;;;;;36.15;27.30;;;;;;;2.23;73.23;98557.37;128310;1112;23650;-62
2021/03/22 11:15:02;;;;;;;29.10;21.43;;;;;;;2.20;73.59;98547.06;128134;1112;22813;-62
2021/03/22 11:17:40;;;;;;;173.20;75.75;;;;;;;2.16;72.67;98545.91;128219;1112;22877;-63
2021/03/22 11:20:09;;;;;;;60.95;32.95;;;;;;;2.12;73.34;98545.53;128232;1111;22842;-63
2021/03/22 11:22:41;;;;;;;52.03;29.37;;;;;;;2.13;73.18;98546.36;128290;1111;23516;-64
2021/03/22 11:25:31;;;;;;;85.10;42.60;;;;;;;2.16;73.30;98553.15;128117;1112;22914;-63
2021/03/22 11:28:04;;;;;;;80.47;39.07;;;;;;;2.15;72.77;98549.64;128284;1111;22899;-63
2021/03/22 11:30:37;;;;;;;151.87;65.70;;;;;;;2.13;72.98;98560.61;128225;1111;22824;-63
2021/03/22 11:33:08;;;;;;;86.10;39.70;;;;;;;2.12;73.32;98552.77;128300;1112;22853;-63
2021/03/22 11:35:36;;;;;;;38.55;21.10;;;;;;;2.11;72.99;98553.82;127462;1111;26202;-61
2021/03/22 11:38:03;;;;;;;51.75;24.95;;;;;;;2.13;73.06;98557.10;124109;1112;24802;-61
2021/03/22 11:40:33;;;;;;;54.37;26.73;;;;;;;2.15;72.29;98557.70;128149;1112;22886;-61
2021/03/22 11:43:22;;;;;;;46.90;23.85;;;;;;;2.17;72.86;98558.27;128325;1111;22971;-61
2021/03/22 11:45:50;;;;;;;41.25;23.10;;;;;;;2.21;72.33;98555.95;128217;1111;22956;-61
2021/03/22 11:48:21;;;;;;;44.20;24.57;;;;;;;2.25;71.99;98565.20;128226;1111;24186;-61
2021/03/22 11:50:59;;;;;;;65.87;32.57;;;;;;;2.26;71.68;98554.23;128214;1111;22841;-61
2021/03/22 11:53:29;;;;;;;70.30;35.15;;;;;;;2.30;71.52;98558.11;128352;1112;22879;-61
2021/03/22 11:56:20;;;;;;;36.80;21.80;;;;;;;2.30;71.01;98562.66;128277;1112;22877;-61